KIRS/IRS METAR and TAF weather

Enter ICAO airport designator
Station Type Date Time Source
KIRS METAR 2022/06/27 18:15 UTC NOAA

KIRS 271815Z AUTO 28013G19KT 10SM CLR 22/05 A3020 RMK AO2 T02190049


Station Type Date Time Source
KIRS Decoded METAR 2022/06/27 18:15 UTC NOAA

Sturgis, Kirsch Municipal Airport, MI, United States (KIRS) 41-48-46N 085-26-21W
Jun 27, 2022 - 02:15 PM EDT / 2022.06.27 1815 UTC
Wind: from the W (280 degrees) at 15 MPH (13 KT) gusting to 22 MPH (19 KT):0
Visibility: 10 mile(s):0
Sky conditions: clear
Temperature: 71.4 F (21.9 C)
Dew Point: 40.8 F (4.9 C)
Relative Humidity: 32%
Pressure (altimeter): 30.2 in. Hg (1022 hPa)
ob: KIRS 271815Z AUTO 28013G19KT 10SM CLR 22/05 A3020 RMK AO2 T02190049
cycle: 18

Station Type Date Time Source
KIRS TAF UTC NOAA

Error!

Example: see airport list